Latest Coastal Weather Observations for Nullarbor

IDS60701

Issued at 6:41 pm CDT Tuesday 12 December 2017 (issued every 10 minutes, with the page automatically refreshed every 10 minutes)

About coastal observations | Map of coastal stations | Coastal observations for SA | Marine services | Other Formats
Station Details ID: 018106 Name: NULLARBOR Lat: -31.45 Lon: 130.90 Height: 64.0 m
Data from the previous 72 hours. | See also: Recent months at Nullarbor
Date/Time
CDT
Temp
°C
Wind Pressure Rain since
9am
mm
Weather Cloud Vis
km
Sea
Height
m
Swell
Dir  Spd
kts
Gust
kts
hPa Trend Height
m
Period
s
Dir
12/06:30pm 33.6 SE 12 14 1004.7 - 0.0 - - 10 - - - -
12/06:00pm 33.6 SSE 12 15 1004.9 - 0.0 - - 10 - - - -
12/05:30pm 35.0 S 13 16 1005.4 - 0.0 - - 10 - - - -
12/05:00pm 36.0 S 15 19 1005.7 - 0.0 - - 10 - - - -
12/04:30pm 37.5 S 14 21 1005.8 - 0.0 - - 10 - - - -
12/04:00pm 40.5 NNW 12 23 1006.1 - 0.0 - - 10 - - - -
12/03:44pm 40.3 NNW 15 29 1006.2 - 0.0 - - 10 - - - -
12/03:30pm 40.7 NNW 14 26 1006.3 - 0.0 - - 10 - - - -
12/03:10pm 41.1 NNW 15 26 1006.5 - 0.0 - - 10 - - - -
12/03:00pm 41.4 NNW 14 24 1006.6 - 0.0 - Mostly clear 10 - - - -
12/02:35pm 40.0 NNW 15 25 1006.8 - 0.0 - - 10 - - - -
12/02:30pm 40.9 NW 14 25 1007.0 - 0.0 - - 10 - - - -
12/02:16pm 41.0 NNW 16 26 1007.0 - 0.0 - - 10 - - - -
12/02:00pm 40.3 NW 14 21 1007.4 - 0.0 - - 10 - - - -
12/01:32pm 40.0 NNW 16 27 1007.9 - 0.0 - - 10 - - - -
12/01:30pm 40.4 NNW 17 25 1008.0 - 0.0 - - 10 - - - -
12/01:00pm 40.1 NNW 19 30 1008.3 - 0.0 - - 10 - - - -
12/12:48pm 39.7 NNW 16 26 1008.6 - 0.0 - - 10 - - - -
12/12:30pm 38.0 N 18 23 1008.8 - 0.0 - - 10 - - - -
12/12:16pm 38.0 N 16 26 1009.0 - 0.0 - - 10 - - - -
12/12:00pm 39.8 N 16 23 1009.4 - 0.0 - - 10 - - - -
12/11:30am 38.0 N 17 22 1009.8 - 0.0 - - 10 - - - -
12/11:00am 38.0 N 16 21 1009.9 - 0.0 - - 10 - - - -
12/10:30am 35.9 N 18 22 1010.3 - 0.0 - - 10 - - - -
12/10:00am 34.8 NNE 18 23 1010.5 - 0.0 - - 10 - - - -
12/09:30am 33.5 NNE 19 25 1010.7 - 0.0 - - 10 - - - -
12/09:00am 31.2 NE 17 23 1010.9 - 0.0 - Mostly clear 10 - - - -
12/08:30am 28.5 NE 16 20 1011.0 - 0.0 - - 10 - - - -
12/08:00am 26.2 NE 16 21 1010.9 - 0.0 - - 10 - - - -
12/07:30am 22.9 NE 13 16 1010.6 - 0.0 - - 10 - - - -
12/07:00am 22.5 NE 13 15 1010.5 - 0.0 - - 10 - - - -
12/06:30am 22.7 NE 12 15 1010.3 - 0.0 - - 10 - - - -
12/06:00am 23.3 NE 13 17 1010.1 - 0.0 - Mostly clear 10 - - - -
12/05:30am 24.3 NE 13 17 1010.3 - 0.0 - - 10 - - - -
12/05:00am 23.3 NE 10 13 1010.3 - 0.0 - - 10 - - - -
12/04:30am 22.1 ENE 11 13 1010.1 - 0.0 - - 10 - - - -
12/04:00am 20.2 ENE 10 11 1010.4 - 0.0 - - 10 - - - -
12/03:30am 19.9 ENE 10 12 1010.5 - 0.0 - - 10 - - - -
12/03:00am 19.1 E 9 10 1010.9 - 0.0 - - 10 - - - -
12/02:30am 19.2 E 9 10 1011.2 - 0.0 - - 10 - - - -
12/02:00am 21.1 E 9 10 1011.6 - 0.0 - - 10 - - - -
12/01:30am 23.0 ENE 11 12 1012.0 - 0.0 - - 10 - - - -
12/01:00am 23.5 ENE 11 13 1012.3 - 0.0 - - 10 - - - -
12/12:30am 23.2 E 10 12 1012.8 - 0.0 - - 10 - - - -
12/12:00am 24.0 ESE 10 12 1013.2 - 0.0 - Cloudy 10 - - - -
 
Date/Time
CDT
Temp
°C
Wind Pressure Rain since
9am
mm
Weather Cloud Vis
km
Sea
Height
m
Swell
Dir  Spd
kts
Gust
kts
hPa Trend Height
m
Period
s
Dir
11/11:30pm 24.0 E 11 13 1013.2 - 0.0 - - 10 - - - -
11/11:00pm 24.0 ESE 12 14 1013.5 - 0.0 - - 10 - - - -
11/10:30pm 24.1 ESE 13 17 1013.3 - 0.0 - - 10 - - - -
11/10:00pm 24.4 ESE 13 17 1013.2 - 0.0 - - 10 - - - -
11/09:30pm 24.0 ESE 13 17 1013.2 - 0.0 - - 10 - - - -
11/09:00pm 23.9 ESE 15 19 1013.3 - 0.0 - - 10 - - - -
11/08:30pm 24.1 ESE 17 22 1013.2 - 0.0 - - 10 - - - -
11/08:00pm 25.0 ESE 16 20 1013.1 - 0.0 - - 10 - - - -
11/07:30pm 27.0 ESE 16 21 1012.9 - 0.0 - - 10 - - - -
11/07:00pm 28.2 SE 17 23 1012.7 - 0.0 - - 10 - - - -
11/06:30pm 29.6 ESE 17 21 1012.7 - 0.0 - - 10 - - - -
11/06:00pm 30.7 SE 18 21 1012.6 - 0.0 - - 10 - - - -
11/05:30pm 31.9 SE 19 23 1012.5 - 0.0 - - 10 - - - -
11/05:00pm 35.4 SSE 18 22 1012.6 - 0.0 - - 10 - - - -
11/04:30pm 37.2 SSE 15 21 1012.7 - 0.0 - - 10 - - - -
11/04:00pm 38.1 NW 7 12 1013.3 - 0.0 - - 10 - - - -
11/03:30pm 38.3 NE 9 15 1013.6 - 0.0 - - 10 - - - -
11/03:00pm 38.0 NW 6 14 1014.0 - 0.0 - Mostly clear 10 - - - -
11/02:30pm 37.9 NNE 8 15 1014.6 - 0.0 - - 10 - - - -
11/02:00pm 37.9 ENE 7 13 1015.0 - 0.0 - - 10 - - - -
11/01:30pm 38.0 E 8 13 1015.6 - 0.0 - - 10 - - - -
11/01:00pm 37.0 NNE 6 13 1016.1 - 0.0 - - 10 - - - -
11/12:30pm 36.3 N 9 15 1016.5 - 0.0 - - 10 - - - -
11/12:00pm 35.7 N 13 19 1016.9 - 0.0 - - 10 - - - -
11/11:30am 35.7 N 15 21 1017.2 - 0.0 - - 10 - - - -
11/11:00am 34.5 N 16 20 1017.5 - 0.0 - - 10 - - - -
11/10:30am 33.3 NNE 15 20 1017.7 - 0.0 - - 10 - - - -
11/10:00am 31.5 NE 16 20 1017.9 - 0.0 - - 10 - - - -
11/09:30am 30.2 NNE 15 19 1018.0 - 0.0 - - 10 - - - -
11/09:00am 27.5 NE 15 20 1018.2 - 0.0 - - 10 - - - -
11/08:30am 24.2 NE 11 15 1018.0 - 0.0 - - 10 - - - -
11/08:00am 21.7 ENE 7 10 1017.6 - 0.0 - - 10 - - - -
11/07:30am 17.7 E 7 8 1017.3 - 0.0 - - 10 - - - -
11/07:00am 13.2 E 7 7 1017.4 - 0.0 - - 10 - - - -
11/06:30am 13.6 E 6 7 1017.0 - 0.0 - - 10 - - - -
11/06:00am 13.8 E 3 4 1016.7 - 0.0 - - 10 - - - -
11/05:30am 13.6 ENE 4 7 1016.6 - 0.0 - - 10 - - - -
11/05:00am 13.9 ESE 10 10 1016.6 - 0.0 - - 10 - - - -
11/04:30am 13.6 ESE 7 8 1016.7 - 0.0 - - 10 - - - -
11/04:00am 14.3 ESE 9 9 1017.0 - 0.0 - - 9 - - - -
11/03:30am 14.4 E 7 8 1017.3 - 0.0 - - 9 - - - -
11/03:00am 15.6 ESE 10 11 1017.4 - 0.0 - - 10 - - - -
11/02:30am 16.1 ESE 8 9 1017.6 - 0.0 - - 10 - - - -
11/02:00am 16.3 ESE 9 10 1017.9 - 0.0 - - 10 - - - -
11/01:30am 17.5 SE 9 10 1018.2 - 0.0 - - 10 - - - -
11/01:00am 18.4 SE 9 11 1018.6 - 0.0 - - 10 - - - -
11/12:30am 19.7 ESE 12 16 1018.8 - 0.0 - - 10 - - - -
11/12:00am 20.3 ESE 14 18 1019.0 - 0.0 - - 10 - - - -
 
Date/Time
CDT
Temp
°C
Wind Pressure Rain since
9am
mm
Weather Cloud Vis
km
Sea
Height
m
Swell
Dir  Spd
kts
Gust
kts
hPa Trend Height
m
Period
s
Dir
10/11:30pm 20.0 ESE 14 17 1018.9 - 0.0 - - 10 - - - -
10/11:00pm 19.6 SE 12 14 1019.0 - 0.0 - - 10 - - - -
10/10:30pm 19.9 SE 12 15 1018.9 - 0.0 - - 10 - - - -
10/10:00pm 20.1 ESE 12 15 1018.6 - 0.0 - - 10 - - - -
10/09:30pm 20.4 ESE 13 17 1018.3 - 0.0 - - 10 - - - -
10/09:00pm 21.1 ESE 13 17 1018.1 - 0.0 - - 10 - - - -
10/08:30pm 22.9 SE 14 17 1017.9 - 0.0 - - 10 - - - -
10/08:00pm 24.7 SE 16 22 1017.6 - 0.0 - - 10 - - - -
10/07:30pm 26.2 SE 18 22 1017.4 - 0.0 - - 10 - - - -
10/07:00pm 26.5 SE 18 23 1017.2 - 0.0 - - 10 - - - -
10/06:30pm 27.3 SE 17 21 1017.1 - 0.0 - - 10 - - - -
10/06:00pm 27.9 SE 18 22 1017.0 - 0.0 - - 10 - - - -
10/05:30pm 29.5 SE 17 22 1017.0 - 0.0 - - 10 - - - -
10/05:00pm 30.6 SE 16 21 1017.0 - 0.0 - - 10 - - - -
10/04:30pm 32.3 SSE 17 21 1017.2 - 0.0 - - 10 - - - -
10/04:00pm 33.7 SSE 17 21 1017.3 - 0.0 - - 10 - - - -
10/03:30pm 34.3 SSE 16 21 1017.4 - 0.0 - - 10 - - - -
10/03:00pm 35.2 S 17 21 1017.5 - 0.0 - - 10 - - - -
10/02:30pm 35.1 SSE 13 17 1017.9 - 0.0 - - 10 - - - -
10/02:00pm 35.3 SE 8 13 1018.3 - 0.0 - - 10 - - - -
10/01:30pm 34.8 NE 5 9 1018.8 - 0.0 - - 10 - - - -
10/01:00pm 34.7 ENE 10 14 1019.2 - 0.0 - - 10 - - - -
10/12:30pm 33.1 N 11 15 1019.4 - 0.0 - - 10 - - - -
10/12:00pm 33.5 NE 12 17 1019.7 - 0.0 - - 10 - - - -
10/11:30am 31.6 NE 13 18 1020.0 - 0.0 - - 10 - - - -
10/11:00am 30.1 NE 12 17 1020.1 - 0.0 - - 10 - - - -
10/10:30am 28.7 NE 13 18 1020.4 - 0.0 - - 10 - - - -
10/10:00am 25.8 NE 10 14 1020.5 - 0.0 - - 10 - - - -
10/09:30am 23.0 ENE 9 11 1020.5 - 0.0 - - 10 - - - -
10/09:00am 21.6 E 9 12 1020.5 - 0.0 - - 10 - - - -
10/08:30am 19.0 E 9 11 1020.4 - 0.0 - - 10 - - - -
10/08:00am 17.3 ESE 7 9 1020.0 - 0.0 - - 10 - - - -
10/07:30am 15.3 ESE 7 8 1019.7 - 0.0 - - 9 - - - -
10/07:00am 13.6 ESE 7 8 1019.3 - 0.0 - - 9 - - - -
10/06:30am 12.7 ESE 7 8 1019.2 - 0.0 - - 10 - - - -
10/06:00am 12.9 ESE 8 9 1019.1 - 0.0 - - 10 - - - -
10/05:30am 13.5 ESE 8 9 1019.0 - 0.0 - - 10 - - - -
10/05:00am 13.9 ESE 7 9 1018.9 - 0.0 - - 10 - - - -
10/04:30am 14.3 ESE 8 9 1018.9 - 0.0 - - 10 - - - -
10/04:00am 14.8 ESE 9 11 1019.0 - 0.0 - - 10 - - - -
10/03:30am 15.0 ESE 9 12 1019.2 - 0.0 - - 10 - - - -
10/03:00am 15.5 ESE 9 11 1019.6 - 0.0 - - 10 - - - -
10/02:30am 15.9 ESE 11 13 1019.8 - 0.0 - - 10 - - - -
10/02:00am 16.3 ESE 12 15 1019.9 - 0.0 - - 10 - - - -
10/01:30am 16.6 ESE 11 15 1020.0 - 0.0 - - 10 - - - -
10/01:00am 16.7 ESE 12 15 1020.3 - 0.0 - - 10 - - - -
10/12:30am 17.0 ESE 13 17 1020.4 - 0.0 - - 10 - - - -
10/12:00am 17.2 ESE 13 18 1020.5 - 0.0 - - 10 - - - -
 
Date/Time
CDT
Temp
°C
Wind Pressure Rain since
9am
mm
Weather Cloud Vis
km
Sea
Height
m
Swell
Dir  Spd
kts
Gust
kts
hPa Trend Height
m
Period
s
Dir
09/11:30pm 17.2 ESE 13 16 1020.5 - 0.0 - - 10 - - - -
09/11:00pm 17.3 SE 13 16 1020.5 - 0.0 - - 10 - - - -
09/10:30pm 17.4 ESE 14 17 1020.2 - 0.0 - - 10 - - - -
09/10:00pm 17.4 ESE 14 17 1020.2 - 0.0 - - 10 - - - -
09/09:30pm 17.5 SE 14 18 1020.0 - 0.0 - - 10 - - - -
09/09:00pm 18.0 SE 12 16 1020.0 - 0.0 - - 10 - - - -
09/08:30pm 19.0 SE 15 19 1019.9 - 0.0 - - 10 - - - -
09/08:00pm 19.9 SE 16 21 1019.4 - 0.0 - - 10 - - - -
09/07:30pm 20.6 SE 17 21 1019.2 - 0.0 - - 10 - - - -
09/07:00pm 21.3 SE 17 21 1019.0 - 0.0 - - 10 - - - -

Other Formats:

Comma delimited format used in spreadsheet applications
http://www.bom.gov.au/fwo/IDS60701/IDS60701.94651.axf

JavaScript Object Notation format (JSON) in row-major order
http://www.bom.gov.au/fwo/IDS60701/IDS60701.94651.json